createdAt,value
2023-03-11T00:00:47.151Z,4.22
2023-03-11T00:03:16.425Z,5.25
2023-03-11T00:05:45.326Z,5.78
2023-03-11T00:08:20.342Z,4.57
2023-03-11T00:10:50.951Z,2.58
2023-03-11T00:13:18.089Z,8.18
2023-03-11T00:15:48.649Z,6.80
2023-03-11T00:18:16.506Z,3.05
2023-03-11T00:20:45.856Z,7.78
2023-03-11T00:23:14.475Z,4.97
2023-03-11T00:25:44.399Z,5.05
2023-03-11T00:28:12.110Z,5.63
2023-03-11T00:30:41.169Z,5.63
2023-03-11T00:33:08.638Z,5.05
2023-03-11T00:35:36.376Z,5.88
2023-03-11T00:38:07.248Z,8.35
2023-03-11T00:40:35.795Z,4.43
2023-03-11T00:43:03.350Z,7.45
2023-03-11T00:45:30.853Z,6.72
2023-03-11T00:47:57.943Z,7.55
2023-03-11T00:50:32.743Z,3.63
2023-03-11T00:53:00.291Z,4.70
2023-03-11T00:55:34.059Z,7.32
2023-03-11T00:58:04.636Z,3.63
2023-03-11T01:00:31.951Z,3.05
2023-03-11T01:03:00.115Z,4.45
2023-03-11T01:05:31.576Z,9.00
2023-03-11T01:07:59.222Z,8.25
2023-03-11T01:10:26.756Z,4.97
2023-03-11T01:12:53.639Z,4.22
2023-03-11T01:15:34.778Z,2.60
2023-03-11T01:18:02.986Z,3.30
2023-03-11T01:20:29.807Z,4.80
2023-03-11T01:22:56.855Z,1.95
2023-03-11T01:25:24.467Z,8.05
2023-03-11T01:27:51.582Z,11.05
2023-03-11T01:30:22.786Z,3.25
2023-03-11T01:32:51.709Z,2.22
2023-03-11T01:35:20.987Z,2.63
2023-03-11T01:37:47.996Z,4.45
2023-03-11T01:40:28.843Z,2.72
2023-03-11T01:42:55.805Z,6.00
2023-03-11T01:46:02.827Z,8.30
2023-03-11T01:48:29.726Z,3.00
2023-03-11T01:50:57.584Z,8.43
2023-03-11T01:53:25.362Z,7.47
2023-03-11T01:55:52.336Z,1.15
2023-03-11T01:58:28.712Z,0.50
2023-03-11T02:00:56.735Z,5.63
2023-03-11T02:03:34.683Z,5.15
2023-03-11T02:06:05.272Z,4.15
2023-03-11T02:08:34.158Z,15.75
2023-03-11T02:11:04.519Z,4.63
2023-03-11T02:13:34.435Z,5.68
2023-03-11T02:16:03.266Z,6.47
2023-03-11T02:18:30.451Z,4.70
2023-03-11T02:21:28.256Z,2.60
2023-03-11T02:24:02.480Z,5.72
2023-03-11T02:26:58.649Z,3.53
2023-03-11T02:29:28.124Z,3.72
2023-03-11T02:32:01.751Z,6.82
2023-03-11T02:34:35.085Z,3.72
2023-03-11T02:37:12.776Z,6.28
2023-03-11T02:39:44.232Z,7.60
2023-03-11T02:42:18.614Z,2.65
2023-03-11T02:45:10.536Z,3.92
2023-03-11T02:47:38.822Z,3.88
2023-03-11T02:50:11.554Z,2.25
2023-03-11T02:52:38.503Z,7.80
2023-03-11T02:55:07.031Z,4.70
2023-03-11T02:57:33.782Z,2.38
2023-03-11T03:00:06.309Z,3.92
2023-03-11T03:02:33.032Z,5.18
2023-03-11T03:04:59.802Z,5.30
2023-03-11T03:07:26.674Z,8.93
2023-03-11T03:09:53.438Z,1.02
2023-03-11T03:12:20.174Z,4.07
2023-03-11T03:14:46.923Z,8.38
2023-03-11T03:17:13.942Z,6.03
2023-03-11T03:19:42.577Z,2.00
2023-03-11T03:22:09.340Z,3.80
2023-03-11T03:24:36.095Z,5.30
2023-03-11T03:27:02.858Z,3.63
2023-03-11T03:29:33.070Z,8.55
2023-03-11T03:31:59.837Z,1.30
2023-03-11T03:34:26.614Z,6.63
2023-03-11T03:36:53.337Z,5.90
2023-03-11T03:39:20.105Z,3.95
2023-03-11T03:41:46.914Z,2.92
2023-03-11T03:44:13.670Z,5.30
2023-03-11T03:46:40.442Z,4.20
2023-03-11T03:49:07.173Z,8.60
2023-03-11T03:51:34.583Z,1.65
2023-03-11T03:54:01.301Z,5.82
2023-03-11T03:56:28.122Z,3.25
2023-03-11T04:22:21.509Z,3.13
2023-03-11T04:24:48.472Z,5.15
2023-03-11T04:27:15.332Z,4.63
2023-03-11T04:29:42.122Z,4.28
2023-03-11T04:32:08.980Z,9.70
2023-03-11T04:34:36.366Z,2.42
2023-03-11T04:37:03.526Z,6.25
2023-03-11T04:39:30.297Z,3.90
2023-03-11T04:41:57.424Z,4.97
2023-03-11T04:44:24.302Z,3.10
2023-03-11T04:46:51.321Z,3.58
2023-03-11T04:49:18.158Z,8.15
2023-03-11T04:51:44.975Z,6.38
2023-03-11T04:54:11.823Z,5.68
2023-03-11T04:56:38.746Z,5.72
2023-03-11T04:59:05.517Z,3.33
2023-03-11T05:01:32.312Z,5.88
2023-03-11T05:03:59.121Z,6.03
2023-03-11T05:06:25.988Z,7.80
2023-03-11T05:08:52.829Z,5.70
2023-03-11T05:11:19.656Z,4.78
2023-03-11T05:13:46.500Z,5.60
2023-03-11T05:16:13.347Z,6.63
2023-03-11T05:18:40.222Z,5.20
2023-03-11T05:21:07.113Z,4.50
2023-03-11T05:23:33.915Z,6.03
2023-03-11T05:26:00.735Z,5.30
2023-03-11T05:28:27.513Z,5.45
2023-03-11T05:30:54.585Z,4.10
2023-03-11T05:33:21.437Z,6.13
2023-03-11T05:35:48.495Z,7.20
2023-03-11T05:38:15.304Z,4.43
2023-03-11T05:40:49.487Z,10.00
2023-03-11T05:43:17.468Z,3.72
2023-03-11T05:45:44.322Z,5.88
2023-03-11T05:48:11.152Z,7.93
2023-03-11T05:50:38.361Z,5.32
2023-03-11T05:53:05.194Z,6.03
2023-03-11T05:55:32.029Z,5.30
2023-03-11T05:57:59.082Z,7.50
2023-03-11T06:00:29.098Z,7.53
2023-03-11T06:02:55.937Z,11.77
2023-03-11T06:05:22.819Z,6.93
2023-03-11T06:07:49.718Z,7.60
2023-03-11T06:10:16.745Z,7.75
2023-03-11T06:12:43.545Z,8.02
2023-03-11T06:15:12.307Z,7.70
2023-03-11T06:17:39.097Z,5.65
2023-03-11T06:20:07.318Z,10.82
2023-03-11T06:22:34.120Z,6.47
2023-03-11T06:25:01.069Z,6.30
2023-03-11T06:27:28.214Z,13.60
2023-03-11T06:29:55.182Z,6.25
2023-03-11T06:32:22.007Z,8.77
2023-03-11T06:34:53.168Z,8.77
2023-03-11T06:37:21.135Z,8.68
2023-03-11T06:39:47.929Z,4.90
2023-03-11T06:42:14.753Z,6.55
2023-03-11T06:44:41.722Z,6.25
2023-03-11T06:47:08.558Z,9.13
2023-03-11T06:49:36.966Z,6.93
2023-03-11T06:52:03.969Z,6.00
2023-03-11T06:54:30.827Z,5.93
2023-03-11T06:56:57.673Z,9.77
2023-03-11T06:59:24.576Z,5.65
2023-03-11T07:01:51.509Z,7.10
2023-03-11T07:04:18.334Z,6.78
2023-03-11T07:06:45.208Z,8.07
2023-03-11T07:09:13.354Z,7.78
2023-03-11T07:11:40.295Z,12.75
2023-03-11T07:14:08.458Z,6.78
2023-03-11T07:16:35.487Z,7.85
2023-03-11T07:19:03.703Z,8.55
2023-03-11T07:21:31.827Z,7.22
2023-03-11T07:24:01.256Z,9.40
2023-03-11T07:26:30.072Z,6.03
2023-03-11T07:28:58.026Z,6.10
2023-03-11T07:31:33.951Z,6.75
2023-03-11T07:34:04.801Z,7.57
2023-03-11T07:36:32.293Z,7.88
2023-03-11T07:39:05.462Z,6.80
2023-03-11T07:41:34.870Z,8.27
2023-03-11T07:44:04.735Z,7.03
2023-03-11T07:46:32.804Z,11.63
2023-03-11T07:49:02.362Z,9.02
2023-03-11T07:51:33.149Z,7.63
2023-03-11T07:54:01.772Z,8.13
2023-03-11T07:56:32.473Z,8.25
2023-03-11T07:59:01.077Z,7.55
2023-03-11T08:01:36.040Z,5.35
2023-03-11T08:04:06.066Z,6.65
2023-03-11T08:06:35.796Z,9.07
2023-03-11T08:09:06.876Z,7.07
2023-03-11T08:11:34.087Z,4.50
2023-03-11T08:14:01.195Z,7.00
2023-03-11T08:16:29.398Z,9.88
2023-03-11T08:18:56.402Z,12.77
2023-03-11T08:21:26.635Z,20.02
2023-03-11T08:23:58.796Z,7.80
2023-03-11T08:26:26.068Z,7.38
2023-03-11T08:28:53.002Z,6.75
2023-03-11T08:31:28.499Z,5.80
2023-03-11T08:34:01.029Z,6.28
2023-03-11T08:36:28.767Z,5.88
2023-03-11T08:38:55.749Z,5.47
2023-03-11T08:41:22.569Z,7.97
2023-03-11T08:43:52.084Z,4.55
2023-03-11T08:46:34.599Z,9.20
2023-03-11T08:49:03.048Z,8.45
2023-03-11T08:51:33.413Z,4.38
2023-03-11T08:54:01.333Z,4.70
2023-03-11T08:56:28.354Z,7.60
2023-03-11T08:58:55.324Z,7.57
2023-03-11T09:01:23.485Z,6.43
2023-03-11T09:03:50.309Z,6.80
2023-03-11T09:06:17.675Z,4.68
2023-03-11T09:08:46.188Z,5.15
2023-03-11T09:11:14.768Z,5.50
2023-03-11T09:13:43.023Z,5.10
2023-03-11T09:16:16.979Z,7.22
2023-03-11T09:18:44.154Z,5.00
2023-03-11T09:21:11.729Z,4.72
2023-03-11T09:23:39.297Z,4.68
2023-03-11T09:26:06.547Z,3.72
2023-03-11T09:28:33.553Z,3.90
2023-03-11T09:31:00.505Z,4.35
2023-03-11T09:33:27.567Z,3.55
2023-03-11T09:35:54.382Z,3.92
2023-03-11T09:38:21.180Z,2.95
2023-03-11T09:41:10.119Z,2.72
2023-03-11T09:44:11.884Z,1.80
2023-03-11T09:46:59.508Z,4.93
2023-03-11T09:49:54.437Z,6.13
2023-03-11T09:52:35.194Z,2.83
2023-03-11T09:55:05.806Z,3.90
2023-03-11T09:57:37.405Z,3.53
2023-03-11T10:00:06.710Z,7.95
2023-03-11T10:02:37.291Z,7.18
2023-03-11T10:05:20.742Z,1.77
2023-03-11T10:07:58.360Z,1.65
2023-03-11T10:10:29.582Z,3.38
2023-03-11T10:13:24.015Z,2.17
2023-03-11T10:16:13.459Z,2.75
2023-03-11T10:18:59.560Z,3.47
2023-03-11T10:21:44.418Z,2.88
2023-03-11T10:24:30.989Z,3.85
2023-03-11T10:27:10.469Z,2.85
2023-03-11T10:30:07.369Z,3.13
2023-03-11T10:32:48.428Z,5.63
2023-03-11T10:35:29.486Z,2.70
2023-03-11T10:38:20.785Z,3.17
2023-03-11T10:40:51.381Z,1.00
2023-03-11T10:43:35.537Z,2.13
2023-03-11T10:46:10.437Z,4.10
2023-03-11T10:48:37.257Z,2.53
2023-03-11T10:51:26.882Z,3.03
2023-03-11T10:53:57.101Z,2.03
2023-03-11T10:56:39.699Z,2.65
2023-03-11T10:59:33.647Z,7.10
2023-03-11T11:02:08.737Z,3.13
2023-03-11T11:04:41.034Z,1.52
2023-03-11T11:07:37.355Z,1.88
2023-03-11T11:10:18.153Z,4.00
2023-03-11T11:13:17.191Z,4.55
2023-03-11T11:16:16.519Z,2.75
2023-03-11T11:18:51.936Z,2.78
2023-03-11T11:21:45.664Z,5.18
2023-03-11T11:24:26.310Z,2.65
2023-03-11T11:27:18.228Z,2.85
2023-03-11T11:29:46.021Z,3.78
2023-03-11T11:32:27.271Z,3.85
2023-03-11T11:35:03.559Z,4.93
2023-03-11T11:37:35.056Z,2.38
2023-03-11T11:40:26.421Z,2.58
2023-03-11T11:43:12.750Z,2.30
2023-03-11T11:46:11.304Z,1.73
2023-03-11T11:48:47.406Z,2.38
2023-03-11T11:51:22.456Z,3.72
2023-03-11T11:54:01.165Z,1.75
2023-03-11T11:56:28.184Z,2.38
2023-03-11T11:58:55.481Z,3.10
2023-03-11T12:01:36.306Z,2.20
2023-03-11T12:04:31.127Z,2.95
2023-03-11T12:07:20.112Z,4.25
2023-03-11T12:10:44.357Z,2.50
2023-03-11T12:13:42.831Z,0.98
2023-03-11T12:16:52.685Z,1.50
2023-03-11T12:20:14.075Z,2.80
2023-03-11T12:23:30.380Z,2.42
2023-03-11T12:26:23.017Z,3.72
2023-03-11T12:29:15.744Z,6.07
2023-03-11T12:31:43.990Z,2.88
2023-03-11T12:34:15.113Z,5.53
2023-03-11T12:36:44.728Z,4.77
2023-03-11T12:39:33.613Z,5.15
2023-03-11T12:42:21.250Z,1.85
2023-03-11T12:44:49.825Z,3.80
2023-03-11T12:47:29.138Z,3.25
2023-03-11T12:50:35.858Z,1.38
2023-03-11T12:53:03.936Z,3.15
2023-03-11T12:55:34.530Z,4.43
2023-03-11T12:58:57.829Z,2.30
2023-03-11T13:01:58.274Z,2.17
2023-03-11T13:04:47.514Z,4.78
2023-03-11T13:07:25.695Z,1.38
2023-03-11T13:10:14.980Z,4.80
2023-03-11T13:12:48.496Z,1.27
2023-03-11T13:15:22.051Z,1.63
2023-03-11T13:18:24.310Z,1.88
2023-03-11T13:20:58.151Z,2.33
2023-03-11T13:23:40.301Z,2.55
2023-03-11T13:28:51.853Z,2.63
2023-03-11T13:32:04.792Z,3.63
2023-03-11T13:34:58.172Z,3.58
2023-03-11T13:37:51.960Z,1.67
2023-03-11T13:40:38.908Z,3.58
2023-03-11T13:43:24.963Z,1.88
2023-03-11T13:46:03.984Z,2.97
2023-03-11T13:48:37.658Z,2.20
2023-03-11T13:51:25.856Z,3.65
2023-03-11T13:54:34.982Z,2.95
2023-03-11T13:57:03.120Z,1.15
2023-03-11T13:59:35.108Z,2.38
2023-03-11T14:02:19.153Z,4.95
2023-03-11T14:04:57.182Z,3.45
2023-03-11T14:07:25.715Z,3.92
2023-03-11T14:10:11.570Z,1.48
2023-03-11T14:12:39.009Z,1.58
2023-03-11T14:15:09.303Z,1.55
2023-03-11T14:17:36.050Z,0.82
2023-03-11T14:20:06.981Z,2.10
2023-03-11T14:22:34.689Z,1.80
2023-03-11T14:25:09.537Z,4.78
2023-03-11T14:27:39.294Z,4.18
2023-03-11T14:30:07.432Z,4.22
2023-03-11T14:32:35.698Z,3.45
2023-03-11T14:35:19.332Z,2.33
2023-03-11T14:37:46.216Z,1.48
2023-03-11T14:40:30.629Z,2.50
2023-03-11T14:43:07.387Z,3.80
2023-03-11T14:45:37.318Z,1.55
2023-03-11T14:48:19.512Z,3.42
2023-03-11T14:50:49.289Z,2.20
2023-03-11T14:53:26.110Z,1.42
2023-03-11T14:56:07.339Z,12.40
2023-03-11T14:59:07.183Z,4.47
2023-03-11T15:01:41.557Z,3.60
2023-03-11T15:04:17.216Z,2.85
2023-03-11T15:06:45.305Z,1.15
2023-03-11T15:09:16.322Z,1.38
2023-03-11T15:11:50.138Z,2.17
2023-03-11T15:14:33.221Z,4.13
2023-03-11T15:17:35.342Z,3.85
2023-03-11T15:20:07.444Z,4.20
2023-03-11T15:22:40.852Z,2.72
2023-03-11T15:25:19.141Z,2.38
2023-03-11T15:27:46.595Z,2.55
2023-03-11T15:30:24.154Z,1.48
2023-03-11T15:32:51.928Z,3.23
2023-03-11T15:35:26.927Z,3.35
2023-03-11T15:38:32.514Z,3.33
2023-03-11T15:41:01.811Z,1.83
2023-03-11T15:43:32.491Z,1.13
2023-03-11T15:46:03.004Z,3.58
2023-03-11T15:48:31.185Z,1.77
2023-03-11T15:51:00.461Z,0.70
2023-03-11T15:53:29.732Z,1.63
2023-03-11T15:56:07.279Z,1.55
2023-03-11T15:58:36.055Z,2.53
2023-03-11T16:01:03.207Z,2.22
2023-03-11T16:03:31.471Z,2.70
2023-03-11T16:05:58.497Z,1.80
2023-03-11T16:08:25.296Z,2.58
2023-03-11T16:10:52.177Z,2.00
2023-03-11T16:13:19.094Z,2.42
2023-03-11T16:15:46.965Z,5.07
2023-03-11T16:18:13.983Z,1.48
2023-03-11T16:20:53.272Z,4.15
2023-03-11T16:23:26.446Z,2.03
2023-03-11T16:26:00.963Z,1.13
2023-03-11T16:28:27.988Z,4.20
2023-03-11T16:30:55.089Z,2.47
2023-03-11T16:33:21.988Z,2.47
2023-03-11T16:35:49.040Z,1.23
2023-03-11T16:38:17.753Z,3.20
2023-03-11T16:40:44.583Z,4.50
2023-03-11T16:43:13.616Z,0.95
2023-03-11T16:45:40.583Z,3.08
2023-03-11T16:48:07.539Z,1.75
2023-03-11T16:50:37.329Z,1.73
2023-03-11T16:53:04.921Z,4.28
2023-03-11T16:55:31.999Z,1.92
2023-03-11T16:57:58.920Z,1.00
2023-03-11T17:00:26.258Z,2.05
2023-03-11T17:02:53.087Z,2.25
2023-03-11T17:05:20.500Z,1.77
2023-03-11T17:07:47.666Z,2.78
2023-03-11T17:10:14.727Z,1.10
2023-03-11T17:12:41.523Z,3.03
2023-03-11T17:15:09.004Z,0.73
2023-03-11T17:17:36.325Z,0.75
2023-03-11T17:20:03.781Z,1.48
2023-03-11T17:22:32.457Z,7.22
2023-03-11T17:24:59.293Z,1.10
2023-03-11T17:27:31.954Z,4.82
2023-03-11T17:30:00.288Z,1.25
2023-03-11T17:32:27.843Z,0.28
2023-03-11T17:34:54.980Z,3.05
2023-03-11T17:37:22.362Z,3.03
2023-03-11T17:39:49.421Z,2.45
2023-03-11T17:42:16.317Z,3.13
2023-03-11T17:44:51.351Z,3.65
2023-03-11T17:47:19.917Z,3.47
2023-03-11T17:49:48.311Z,1.05
2023-03-11T17:52:15.186Z,3.22
2023-03-11T17:54:42.010Z,1.70
2023-03-11T17:57:08.807Z,0.77
2023-03-11T17:59:35.709Z,1.60
2023-03-11T18:02:02.748Z,0.90
2023-03-11T18:04:29.623Z,0.77
2023-03-11T18:06:56.740Z,1.63
2023-03-11T18:09:23.542Z,0.68
2023-03-11T18:11:50.341Z,2.53
2023-03-11T18:14:17.212Z,2.05
2023-03-11T18:16:44.051Z,1.95
2023-03-11T18:19:11.015Z,2.50
2023-03-11T18:21:37.782Z,1.38
2023-03-11T18:24:05.188Z,1.02
2023-03-11T18:26:32.158Z,2.83
2023-03-11T18:29:00.811Z,2.97
2023-03-11T18:31:29.456Z,3.60
2023-03-11T18:34:03.239Z,5.03
2023-03-11T18:36:33.974Z,4.85
2023-03-11T18:39:02.004Z,2.55
2023-03-11T18:41:32.950Z,1.25
2023-03-11T18:44:00.967Z,2.55
2023-03-11T18:46:33.981Z,2.60
2023-03-11T18:49:03.664Z,1.92
2023-03-11T18:51:32.808Z,2.72
2023-03-11T18:54:00.578Z,4.13
2023-03-11T18:56:30.935Z,4.57
2023-03-11T18:58:59.015Z,6.57
2023-03-11T19:01:27.514Z,5.10
2023-03-11T19:03:58.144Z,9.65
2023-03-11T19:06:27.317Z,18.27
2023-03-11T19:08:54.964Z,14.60
2023-03-11T19:11:23.975Z,11.02
2023-03-11T19:13:51.971Z,6.68
2023-03-11T19:16:23.610Z,4.88
2023-03-11T19:18:51.531Z,4.10
2023-03-11T19:21:18.548Z,3.78
2023-03-11T19:23:46.429Z,3.45
2023-03-11T19:26:13.619Z,1.70
2023-03-11T19:28:40.635Z,5.15
2023-03-11T19:31:07.529Z,5.78
2023-03-11T19:33:34.750Z,5.68
2023-03-11T19:36:05.078Z,14.30
2023-03-11T19:38:32.848Z,18.60
2023-03-11T19:41:11.489Z,13.98
2023-03-11T19:43:38.315Z,13.48
2023-03-11T19:46:06.635Z,12.27
2023-03-11T19:48:34.016Z,18.88
2023-03-11T19:51:02.326Z,5.22
2023-03-11T19:53:29.383Z,5.68
2023-03-11T19:55:57.236Z,4.45
2023-03-11T19:58:30.043Z,5.45
2023-03-11T20:00:59.169Z,7.95
2023-03-11T20:03:27.328Z,6.85
2023-03-11T20:05:58.052Z,19.38
2023-03-11T20:08:26.368Z,16.10
2023-03-11T20:10:53.809Z,14.68
2023-03-11T20:13:22.343Z,7.32
2023-03-11T20:15:50.098Z,8.55
2023-03-11T20:18:17.952Z,13.07
2023-03-11T20:20:46.914Z,11.65
2023-03-11T20:23:14.245Z,5.25
2023-03-11T20:25:42.588Z,5.72
2023-03-11T20:28:10.732Z,5.15
2023-03-11T20:30:38.897Z,5.55
2023-03-11T20:33:07.601Z,7.03
2023-03-11T20:35:35.103Z,4.07
2023-03-11T20:38:02.958Z,7.93
2023-03-11T20:40:30.151Z,6.43
2023-03-11T20:42:57.270Z,9.20
2023-03-11T20:45:24.086Z,11.27
2023-03-11T20:47:53.529Z,8.70
2023-03-11T20:50:22.208Z,12.52
2023-03-11T20:52:50.627Z,8.65
2023-03-11T20:55:18.002Z,10.25
2023-03-11T20:57:45.821Z,12.35
2023-03-11T21:00:13.881Z,7.88
2023-03-11T21:02:42.656Z,8.70
2023-03-11T21:05:11.666Z,11.20
2023-03-11T21:07:39.355Z,9.10
2023-03-11T21:10:10.637Z,6.70
2023-03-11T21:12:37.648Z,10.60
2023-03-11T21:15:05.549Z,10.27
2023-03-11T21:17:33.749Z,9.48
2023-03-11T21:20:00.885Z,8.98
2023-03-11T21:22:27.764Z,10.43
2023-03-11T21:24:55.536Z,8.20
2023-03-11T21:27:27.112Z,10.25
2023-03-11T21:29:55.547Z,7.35
2023-03-11T21:32:24.979Z,6.70
2023-03-11T21:34:57.161Z,8.18
2023-03-11T21:37:25.668Z,7.15
2023-03-11T21:39:52.796Z,8.75
2023-03-11T21:42:20.592Z,7.72
2023-03-11T21:44:47.738Z,8.93
2023-03-11T21:47:14.640Z,9.30
2023-03-11T21:49:42.109Z,14.80
2023-03-11T21:52:09.549Z,11.27
2023-03-11T21:54:36.368Z,10.32
2023-03-11T21:57:04.516Z,8.70
2023-03-11T21:59:33.992Z,11.32
2023-03-11T22:02:03.318Z,9.57
2023-03-11T22:04:31.564Z,9.77
2023-03-11T22:06:58.644Z,11.15
2023-03-11T22:09:26.492Z,9.50
2023-03-11T22:11:55.945Z,8.93
2023-03-11T22:14:23.380Z,12.20
2023-03-11T22:16:50.796Z,10.98
2023-03-11T22:19:17.685Z,12.13
2023-03-11T22:21:44.629Z,12.70
2023-03-11T22:24:11.583Z,13.48
2023-03-11T22:26:38.431Z,11.65
2023-03-11T22:29:06.701Z,10.50
2023-03-11T22:31:35.444Z,12.55
2023-03-11T22:34:02.292Z,9.32
2023-03-11T22:36:29.097Z,7.68
2023-03-11T22:38:56.846Z,8.98
2023-03-11T22:41:24.223Z,8.73
2023-03-11T22:43:51.121Z,11.45
2023-03-11T22:46:17.952Z,13.55
2023-03-11T22:48:44.908Z,10.98
2023-03-11T22:51:11.855Z,11.25
2023-03-11T22:53:38.852Z,9.20
2023-03-11T22:56:13.204Z,10.80
2023-03-11T22:58:40.304Z,10.75
2023-03-11T23:01:07.794Z,9.63
2023-03-11T23:03:36.010Z,9.77
2023-03-11T23:06:07.402Z,16.88
2023-03-11T23:08:35.063Z,8.47
2023-03-11T23:11:05.676Z,15.13
2023-03-11T23:13:35.538Z,14.07
2023-03-11T23:16:17.383Z,9.55
2023-03-11T23:18:46.570Z,9.88
2023-03-11T23:21:21.829Z,6.82
2023-03-11T23:23:48.987Z,9.43
2023-03-11T23:26:16.831Z,9.93
2023-03-11T23:28:44.588Z,8.32
2023-03-11T23:31:14.685Z,5.97
2023-03-11T23:33:42.203Z,6.55
2023-03-11T23:36:15.886Z,10.88
2023-03-11T23:38:43.486Z,7.47
2023-03-11T23:41:15.060Z,10.48
2023-03-11T23:43:42.467Z,7.22
2023-03-11T23:46:10.226Z,7.15
2023-03-11T23:48:38.197Z,9.50
2023-03-11T23:51:05.640Z,9.82
2023-03-11T23:53:32.947Z,8.18
2023-03-11T23:55:59.893Z,7.18
2023-03-11T23:58:26.778Z,6.72
